Time;durP1;ratioP1;P1;durP2;ratioP2;P2;SDS_P1;SDS_P2;PMS_P1;PMS_P2;Temp;Humidity;BMP_temperature;BMP_pressure;BME280_temperature;BME280_humidity;BME280_pressure;Samples;Min_cycle;Max_cycle;Signal;HPM_P1;HPM_P2
2022/11/17 00:01:37;;;;;;;702.40;644.00;;;10.00;99.90;;;;;;4979075;28;20463;-84
2022/11/17 00:04:04;;;;;;;705.57;647.17;;;10.00;99.90;;;;;;4978641;28;20489;-84
2022/11/17 00:06:30;;;;;;;713.63;658.20;;;10.00;99.90;;;;;;4976917;28;20989;-84
2022/11/17 00:08:57;;;;;;;715.63;661.30;;;10.00;99.90;;;;;;4979109;28;20569;-84
2022/11/17 00:11:25;;;;;;;717.17;664.37;;;10.00;99.90;;;;;;4978436;28;20465;-83
2022/11/17 00:16:37;;;;;;;711.10;659.67;;;10.00;99.90;;;;;;4978323;28;20542;-85
2022/11/17 00:21:48;;;;;;;695.43;646.93;;;10.10;99.90;;;;;;4978148;28;20510;-84
2022/11/17 00:24:16;;;;;;;691.50;642.30;;;10.10;99.90;;;;;;4978323;28;20861;-83
2022/11/17 00:29:25;;;;;;;681.33;633.50;;;10.20;99.90;;;;;;4978081;28;20557;-82
2022/11/17 00:34:36;;;;;;;702.63;650.53;;;10.10;99.90;;;;;;4978162;28;20862;-84
2022/11/17 00:37:03;;;;;;;681.83;629.07;;;10.10;99.90;;;;;;4977305;28;20458;-84
2022/11/17 00:39:29;;;;;;;678.67;625.47;;;10.00;99.90;;;;;;4977990;28;20482;-83
2022/11/17 00:41:58;;;;;;;695.17;640.80;;;10.00;99.90;;;;;;4977586;28;20451;-83
2022/11/17 00:44:25;;;;;;;693.33;638.10;;;10.00;99.90;;;;;;4978446;28;20482;-83
2022/11/17 00:46:52;;;;;;;700.17;644.27;;;10.00;99.90;;;;;;4979215;28;20824;-84
2022/11/17 00:49:20;;;;;;;697.93;642.30;;;10.00;99.90;;;;;;4979207;28;20479;-84
2022/11/17 00:51:47;;;;;;;699.67;644.53;;;10.00;99.90;;;;;;4978468;28;20451;-84
2022/11/17 00:54:14;;;;;;;689.47;634.37;;;10.00;99.90;;;;;;4978318;28;20465;-83
2022/11/17 00:56:41;;;;;;;683.53;629.80;;;10.10;99.90;;;;;;4978563;28;20468;-84
2022/11/17 00:59:09;;;;;;;682.93;630.30;;;10.10;99.90;;;;;;4978902;28;20474;-84
2022/11/17 01:01:37;;;;;;;687.93;633.67;;;10.00;99.90;;;;;;4978715;28;20450;-84
2022/11/17 01:04:04;;;;;;;675.40;620.97;;;10.10;99.90;;;;;;4979116;28;20490;-84
2022/11/17 01:06:33;;;;;;;683.60;628.30;;;10.10;99.90;;;;;;4977866;28;20464;-84
2022/11/17 01:09:00;;;;;;;680.70;624.30;;;10.10;99.90;;;;;;4977819;28;20475;-83
2022/11/17 01:11:28;;;;;;;679.50;623.33;;;10.10;99.90;;;;;;4977709;28;20461;-84
2022/11/17 01:13:57;;;;;;;681.60;624.07;;;10.10;99.90;;;;;;4977434;28;20869;-83
2022/11/17 01:16:27;;;;;;;680.27;623.27;;;10.10;99.90;;;;;;4978477;28;20450;-83
2022/11/17 01:18:54;;;;;;;691.80;633.10;;;10.10;99.90;;;;;;4977716;28;20475;-82
2022/11/17 01:21:23;;;;;;;696.43;638.20;;;10.10;99.90;;;;;;4977760;28;20450;-83
2022/11/17 01:23:51;;;;;;;686.33;629.57;;;10.10;99.90;;;;;;4977363;28;20981;-82
2022/11/17 01:26:20;;;;;;;698.77;641.37;;;10.10;99.90;;;;;;4977663;28;20461;-84
2022/11/17 01:28:48;;;;;;;697.47;639.57;;;10.10;99.90;;;;;;4980589;28;20485;-84
2022/11/17 01:31:16;;;;;;;703.13;646.77;;;10.10;99.90;;;;;;4980697;28;20458;-83
2022/11/17 01:33:45;;;;;;;694.70;638.80;;;10.20;99.90;;;;;;4981562;28;20455;-84
2022/11/17 01:36:14;;;;;;;703.70;649.30;;;10.10;99.90;;;;;;4980876;28;20537;-85
2022/11/17 01:38:41;;;;;;;702.77;648.57;;;10.20;99.90;;;;;;4981338;28;20483;-84
2022/11/17 01:41:15;;;;;;;707.03;654.00;;;10.20;99.90;;;;;;4980495;28;20459;-83
2022/11/17 01:43:43;;;;;;;704.37;652.57;;;10.10;99.90;;;;;;4981494;28;20483;-85
2022/11/17 01:46:26;;;;;;;708.97;657.60;;;10.10;99.90;;;;;;4980810;28;20458;-84
2022/11/17 01:48:57;;;;;;;695.57;645.17;;;10.10;99.90;;;;;;4982049;28;20481;-83
2022/11/17 01:51:25;;;;;;;689.20;640.90;;;10.20;99.90;;;;;;4981024;28;20455;-84
2022/11/17 01:53:52;;;;;;;685.53;638.97;;;10.20;99.90;;;;;;4981735;28;20455;-84
2022/11/17 01:56:23;;;;;;;677.60;634.97;;;10.20;99.90;;;;;;4980765;28;20837;-85
2022/11/17 01:58:55;;;;;;;684.93;640.30;;;10.20;99.90;;;;;;4981508;28;20485;-83
2022/11/17 02:01:21;;;;;;;679.33;636.30;;;10.20;99.90;;;;;;4980390;28;20461;-85
2022/11/17 02:03:50;;;;;;;674.27;629.73;;;10.30;99.90;;;;;;4981589;28;20481;-85
2022/11/17 02:06:22;;;;;;;677.23;633.03;;;10.20;99.90;;;;;;4980909;28;20463;-85
2022/11/17 02:08:51;;;;;;;674.57;630.47;;;10.20;99.90;;;;;;4982019;28;20474;-85
2022/11/17 02:11:20;;;;;;;680.03;635.83;;;10.40;99.90;;;;;;4980390;28;20451;-85
2022/11/17 02:13:47;;;;;;;671.57;630.07;;;10.30;99.90;;;;;;4980756;28;20451;-85
2022/11/17 02:16:15;;;;;;;663.90;623.57;;;10.40;99.90;;;;;;4981498;28;20467;-85
2022/11/17 02:18:44;;;;;;;656.33;617.90;;;10.30;99.90;;;;;;4981465;28;20509;-84
2022/11/17 02:21:33;;;;;;;652.70;615.70;;;10.30;99.90;;;;;;4980713;28;20451;-84
2022/11/17 02:24:22;;;;;;;642.60;605.50;;;10.40;99.90;;;;;;4981427;28;20542;-85
2022/11/17 02:27:27;;;;;;;612.63;579.53;;;10.40;99.90;;;;;;4981398;28;21139;-85
2022/11/17 02:29:59;;;;;;;639.07;602.77;;;10.50;99.90;;;;;;4963789;28;20461;-85
2022/11/17 02:32:32;;;;;;;640.77;605.07;;;10.40;99.90;;;;;;4980028;28;20827;-85
2022/11/17 02:35:08;;;;;;;654.27;613.50;;;10.40;99.90;;;;;;4980542;28;20451;-84
2022/11/17 02:37:44;;;;;;;662.17;619.97;;;10.40;99.90;;;;;;4962773;28;20458;-84
2022/11/17 02:40:16;;;;;;;663.13;620.40;;;10.40;99.90;;;;;;4979213;28;20462;-83
2022/11/17 02:45:37;;;;;;;660.67;619.43;;;10.40;99.90;;;;;;4980365;28;20486;-85
2022/11/17 02:48:10;;;;;;;663.90;622.40;;;10.50;99.90;;;;;;4980886;28;20475;-85
2022/11/17 02:50:38;;;;;;;675.73;632.37;;;10.40;99.90;;;;;;4981143;28;20459;-85
2022/11/17 02:53:06;;;;;;;682.67;639.00;;;10.40;99.90;;;;;;4980816;28;20463;-84
2022/11/17 02:55:34;;;;;;;676.47;633.57;;;10.40;99.90;;;;;;4980541;28;20455;-83
2022/11/17 02:58:03;;;;;;;676.03;632.33;;;10.30;99.90;;;;;;4978946;28;20477;-83
2022/11/17 03:00:32;;;;;;;687.70;643.50;;;10.40;99.90;;;;;;4980256;28;20455;-84
2022/11/17 03:03:17;;;;;;;681.03;636.97;;;10.40;99.90;;;;;;4980644;28;20455;-83
2022/11/17 03:05:56;;;;;;;686.13;641.77;;;10.30;99.90;;;;;;4979709;28;20474;-84
2022/11/17 03:08:34;;;;;;;688.37;643.57;;;10.30;99.90;;;;;;4979719;28;20479;-84
2022/11/17 03:11:03;;;;;;;689.03;643.90;;;10.40;99.90;;;;;;4960942;28;20460;-84
2022/11/17 03:13:43;;;;;;;682.33;638.77;;;10.30;99.90;;;;;;4961003;29;20462;-85
2022/11/17 03:16:18;;;;;;;680.53;635.07;;;10.30;99.90;;;;;;4961616;29;20465;-85
2022/11/17 03:18:55;;;;;;;693.67;648.00;;;10.40;99.90;;;;;;4962076;28;20479;-84
2022/11/17 03:21:27;;;;;;;690.23;645.87;;;10.40;99.90;;;;;;4980287;28;20462;-83
2022/11/17 03:24:02;;;;;;;686.27;643.27;;;10.30;99.90;;;;;;4980018;28;20466;-83
2022/11/17 03:26:33;;;;;;;674.53;634.30;;;10.40;99.90;;;;;;4980559;28;20482;-84
2022/11/17 03:29:03;;;;;;;665.70;624.27;;;10.30;99.90;;;;;;4979993;28;20502;-84
2022/11/17 03:31:32;;;;;;;672.13;631.83;;;10.40;99.90;;;;;;4979535;28;20466;-84
2022/11/17 03:34:06;;;;;;;635.17;600.17;;;10.40;99.90;;;;;;4980254;28;20518;-84
2022/11/17 03:36:42;;;;;;;647.50;610.20;;;10.40;99.90;;;;;;4980558;28;20843;-83
2022/11/17 03:39:13;;;;;;;608.77;576.23;;;10.40;99.90;;;;;;4980219;28;20569;-82
2022/11/17 03:41:45;;;;;;;608.33;575.97;;;10.40;99.90;;;;;;4979542;28;20451;-84
2022/11/17 03:44:15;;;;;;;621.83;587.60;;;10.30;99.90;;;;;;4979931;28;20471;-85
2022/11/17 03:46:45;;;;;;;618.30;584.67;;;10.40;99.90;;;;;;4980130;28;20475;-84
2022/11/17 03:49:20;;;;;;;615.00;581.27;;;10.30;99.90;;;;;;4979302;28;20475;-85
2022/11/17 03:51:47;;;;;;;610.97;578.17;;;10.30;99.90;;;;;;4979828;28;20517;-84
2022/11/17 03:54:15;;;;;;;621.20;586.77;;;10.10;99.90;;;;;;4980351;28;20475;-85
2022/11/17 03:56:50;;;;;;;648.93;611.57;;;10.10;99.90;;;;;;4980201;28;20459;-85
2022/11/17 03:59:24;;;;;;;663.10;624.00;;;9.90;99.90;;;;;;4978755;28;20494;-85
2022/11/17 04:01:51;;;;;;;668.30;627.80;;;9.80;99.90;;;;;;4979251;28;20455;-84
2022/11/17 04:04:21;;;;;;;667.50;626.90;;;9.90;99.90;;;;;;4980149;28;20483;-85
2022/11/17 04:06:48;;;;;;;681.50;639.00;;;9.80;99.90;;;;;;4974685;28;20456;-84
2022/11/17 04:09:15;;;;;;;689.77;645.37;;;9.70;99.90;;;;;;4963500;28;20850;-85
2022/11/17 04:17:12;;;;;;;697.07;648.03;;;9.60;99.90;;;;;;4980051;28;20470;-85
2022/11/17 04:19:39;;;;;;;705.60;656.30;;;9.60;99.90;;;;;;4980536;28;20996;-86
2022/11/17 04:22:05;;;;;;;731.17;679.83;;;9.50;99.90;;;;;;4980257;28;20811;-87
2022/11/17 04:24:32;;;;;;;729.43;678.47;;;9.60;99.90;;;;;;4980190;28;20475;-84
2022/11/17 04:29:45;;;;;;;730.33;679.07;;;9.50;99.90;;;;;;4980091;28;20518;-86
2022/11/17 04:32:11;;;;;;;727.60;676.00;;;9.50;99.90;;;;;;4981002;28;20447;-84
2022/11/17 04:34:41;;;;;;;718.87;667.97;;;9.50;99.90;;;;;;4979948;28;20457;-85
2022/11/17 04:37:16;;;;;;;710.33;659.27;;;9.60;99.90;;;;;;4979715;28;20455;-84
2022/11/17 04:39:43;;;;;;;721.30;669.90;;;9.60;99.90;;;;;;4980061;28;20482;-85
2022/11/17 04:42:09;;;;;;;730.63;679.10;;;9.50;99.90;;;;;;4979471;28;20466;-86
2022/11/17 04:44:35;;;;;;;730.77;679.07;;;9.50;99.90;;;;;;4980230;28;20478;-86
2022/11/17 04:47:05;;;;;;;736.23;684.97;;;9.60;99.90;;;;;;4980978;28;20523;-85
2022/11/17 04:49:33;;;;;;;742.87;691.97;;;9.60;99.90;;;;;;4979809;28;20546;-86
2022/11/17 04:52:00;;;;;;;743.80;693.00;;;9.60;99.90;;;;;;4967040;28;20446;-86
2022/11/17 04:54:26;;;;;;;710.87;659.27;;;9.70;99.90;;;;;;4979566;28;20455;-84
2022/11/17 04:56:55;;;;;;;691.47;637.57;;;9.80;99.90;;;;;;4978132;28;20862;-82
2022/11/17 04:59:22;;;;;;;709.37;654.07;;;9.90;99.90;;;;;;4977834;28;20478;-85
2022/11/17 05:01:49;;;;;;;700.43;646.17;;;9.80;99.90;;;;;;4977891;28;20450;-84
2022/11/17 05:04:54;;;;;;;670.77;617.30;;;9.90;99.90;;;;;;4982159;28;20454;-83
2022/11/17 05:07:07;;;;;;;684.50;630.10;;;9.90;99.90;;;;;;4982165;28;20485;-86
2022/11/17 05:09:34;;;;;;;689.90;635.90;;;9.90;99.90;;;;;;4981886;28;20475;-82
2022/11/17 05:14:47;;;;;;;681.83;628.43;;;9.90;99.90;;;;;;4982951;28;20478;-85
2022/11/17 05:17:13;;;;;;;695.60;640.37;;;10.00;99.90;;;;;;4980607;28;20908;-84
2022/11/17 05:19:44;;;;;;;690.47;634.97;;;10.00;99.90;;;;;;4980198;28;20583;-83
2022/11/17 05:24:56;;;;;;;675.83;621.37;;;10.00;99.90;;;;;;4969062;28;20595;-84
2022/11/17 05:27:23;;;;;;;688.43;633.03;;;10.10;99.90;;;;;;4979521;28;20454;-83
2022/11/17 05:29:50;;;;;;;697.27;642.37;;;10.00;99.90;;;;;;4979243;28;20823;-82
2022/11/17 05:32:17;;;;;;;714.43;658.57;;;10.00;99.90;;;;;;4978770;28;20458;-83
2022/11/17 05:34:45;;;;;;;714.47;658.10;;;10.00;99.90;;;;;;4979660;28;20462;-84
2022/11/17 05:37:12;;;;;;;694.47;638.57;;;10.00;99.90;;;;;;4978657;28;20475;-81
2022/11/17 05:39:39;;;;;;;698.53;642.37;;;10.10;99.90;;;;;;4980963;28;20489;-83
2022/11/17 05:42:05;;;;;;;684.87;628.87;;;10.10;99.90;;;;;;4980499;28;20454;-83
2022/11/17 05:44:32;;;;;;;687.13;632.53;;;10.00;99.90;;;;;;4980881;28;20995;-83
2022/11/17 05:46:59;;;;;;;690.40;634.73;;;10.10;99.90;;;;;;4981452;28;20459;-86
2022/11/17 05:49:26;;;;;;;700.37;645.77;;;10.10;99.90;;;;;;4980877;28;20474;-84
2022/11/17 05:51:54;;;;;;;699.17;644.67;;;10.10;99.90;;;;;;4982022;28;20829;-84
2022/11/17 05:54:20;;;;;;;676.20;622.40;;;10.20;99.90;;;;;;4980834;28;20451;-84
2022/11/17 05:56:51;;;;;;;681.20;627.83;;;10.00;99.90;;;;;;4982632;28;21093;-84
2022/11/17 05:59:23;;;;;;;670.10;617.60;;;10.10;99.90;;;;;;4981030;28;20481;-84
2022/11/17 06:01:57;;;;;;;674.23;620.60;;;10.10;99.90;;;;;;4981434;28;20459;-85
2022/11/17 06:04:24;;;;;;;665.30;611.70;;;10.10;99.90;;;;;;4981672;28;20461;-85
2022/11/17 06:06:51;;;;;;;657.23;604.67;;;10.10;99.90;;;;;;4981499;28;20466;-83
2022/11/17 06:09:19;;;;;;;662.47;609.97;;;10.10;99.90;;;;;;4978380;28;20474;-83
2022/11/17 06:11:46;;;;;;;654.40;602.30;;;10.20;99.90;;;;;;4977534;28;20465;-85
2022/11/17 06:14:13;;;;;;;649.97;599.73;;;10.10;99.90;;;;;;4977667;28;20458;-84
2022/11/17 06:16:43;;;;;;;648.00;596.00;;;10.20;99.90;;;;;;4978139;28;20447;-83
2022/11/17 06:19:15;;;;;;;651.50;598.30;;;10.20;99.90;;;;;;4977519;28;20470;-84
2022/11/17 06:21:41;;;;;;;663.93;612.37;;;10.10;99.90;;;;;;4975941;28;20463;-84
2022/11/17 06:24:09;;;;;;;666.87;615.47;;;10.20;99.90;;;;;;4977186;28;20470;-84
2022/11/17 06:26:39;;;;;;;661.37;608.87;;;10.20;99.90;;;;;;4975290;28;20533;-84
2022/11/17 06:29:07;;;;;;;680.73;627.93;;;10.10;99.90;;;;;;4959538;28;20843;-83
2022/11/17 06:31:33;;;;;;;679.83;626.27;;;10.10;99.90;;;;;;4972468;28;20829;-85
2022/11/17 06:34:02;;;;;;;687.67;633.73;;;10.10;99.90;;;;;;4976906;28;20980;-84
2022/11/17 06:36:30;;;;;;;678.43;625.53;;;10.10;99.90;;;;;;4977839;28;20482;-85
2022/11/17 06:39:01;;;;;;;677.40;624.40;;;10.10;99.90;;;;;;4981222;28;20479;-84
2022/11/17 06:41:30;;;;;;;680.67;628.33;;;10.10;99.90;;;;;;4980864;28;20522;-84
2022/11/17 06:43:58;;;;;;;687.07;633.90;;;10.00;99.90;;;;;;4980291;28;20459;-86
2022/11/17 06:46:36;;;;;;;674.23;622.47;;;10.10;99.90;;;;;;4980589;28;20497;-85
2022/11/17 06:49:04;;;;;;;680.93;628.77;;;10.10;99.90;;;;;;4981122;28;20506;-86
2022/11/17 06:51:30;;;;;;;688.20;635.67;;;10.10;99.90;;;;;;4981835;28;20462;-85
2022/11/17 06:53:57;;;;;;;698.43;644.80;;;10.10;99.90;;;;;;4979947;28;20462;-86
2022/11/17 06:56:24;;;;;;;699.67;644.93;;;10.10;99.90;;;;;;4980750;28;20454;-86
2022/11/17 06:58:51;;;;;;;713.77;657.13;;;10.10;99.90;;;;;;4981042;28;21205;-87
2022/11/17 07:01:32;;;;;;;713.10;656.17;;;10.10;99.90;;;;;;4980670;28;22132;-85
2022/11/17 07:03:59;;;;;;;714.10;656.50;;;10.10;99.90;;;;;;4980552;28;20455;-83
2022/11/17 07:06:26;;;;;;;706.53;650.27;;;10.20;99.90;;;;;;4980529;28;20562;-85
2022/11/17 07:09:04;;;;;;;721.13;663.97;;;10.20;99.90;;;;;;4981782;28;20470;-86
2022/11/17 07:11:34;;;;;;;710.13;653.47;;;10.20;99.90;;;;;;4981557;28;20457;-85
2022/11/17 07:14:01;;;;;;;708.80;652.23;;;10.20;99.90;;;;;;4972933;28;20455;-86
2022/11/17 07:16:31;;;;;;;688.63;633.87;;;10.30;99.90;;;;;;4980714;28;20991;-85
2022/11/17 07:18:58;;;;;;;692.57;638.07;;;10.30;99.90;;;;;;4980718;28;21007;-85
2022/11/17 07:21:25;;;;;;;687.33;632.50;;;10.30;99.90;;;;;;4980928;28;20455;-85
2022/11/17 07:23:51;;;;;;;696.43;642.17;;;10.30;99.90;;;;;;4980552;28;20825;-84
2022/11/17 07:26:31;;;;;;;689.87;637.47;;;10.30;99.90;;;;;;4979307;28;20992;-88
2022/11/17 07:28:57;;;;;;;692.27;640.20;;;10.30;99.90;;;;;;4962226;28;20486;-85
2022/11/17 07:31:24;;;;;;;690.80;642.17;;;10.30;99.90;;;;;;4961415;29;20542;-84
2022/11/17 07:33:53;;;;;;;668.07;624.93;;;10.50;99.90;;;;;;4961131;29;20456;-85
2022/11/17 07:36:20;;;;;;;583.17;553.60;;;10.50;99.90;;;;;;4961135;29;20448;-85
2022/11/17 07:38:47;;;;;;;528.83;504.00;;;10.70;99.90;;;;;;4959891;28;20498;-84
2022/11/17 07:41:14;;;;;;;379.00;363.30;;;10.70;99.90;;;;;;4961199;29;20456;-84
2022/11/17 07:43:44;;;;;;;370.97;355.87;;;10.70;99.90;;;;;;4960255;28;20459;-85
2022/11/17 07:46:12;;;;;;;326.87;313.23;;;10.70;99.90;;;;;;4960784;29;20550;-85
2022/11/17 07:48:53;;;;;;;238.03;228.17;;;10.60;99.90;;;;;;4961167;28;20482;-85
2022/11/17 07:51:21;;;;;;;209.13;200.97;;;10.60;99.90;;;;;;4961747;29;20507;-85
2022/11/17 07:53:51;;;;;;;143.70;138.47;;;10.70;99.90;;;;;;4961801;28;20555;-85
2022/11/17 07:56:33;;;;;;;89.73;86.23;;;10.60;99.90;;;;;;4960845;29;20455;-85
2022/11/17 07:59:12;;;;;;;;;;;;;;;;;;;;;
2022/11/17 08:01:41;;;;;;;43.60;41.57;;;10.80;99.90;;;;;;4961503;28;20467;-85
2022/11/17 08:04:10;;;;;;;34.33;32.30;;;10.70;99.90;;;;;;4961723;29;20464;-85
2022/11/17 08:06:46;;;;;;;50.60;48.63;;;10.70;99.90;;;;;;4961579;29;20542;-87
2022/11/17 08:09:18;;;;;;;35.70;34.03;;;10.70;99.90;;;;;;4961299;28;20480;-85
2022/11/17 08:11:56;;;;;;;14.90;13.70;;;10.70;99.90;;;;;;4978789;28;20459;-85
2022/11/17 08:14:23;;;;;;;33.87;32.27;;;10.70;99.90;;;;;;4961926;29;20464;-86
2022/11/17 08:16:51;;;;;;;42.53;40.40;;;10.80;99.90;;;;;;4960723;29;20456;-86
2022/11/17 08:19:19;;;;;;;57.80;55.37;;;10.70;99.90;;;;;;4960471;28;20480;-85
2022/11/17 08:21:51;;;;;;;49.60;47.37;;;10.80;99.90;;;;;;4960705;29;20460;-85
2022/11/17 08:24:18;;;;;;;94.37;90.57;;;10.80;99.90;;;;;;4961075;29;20510;-86
2022/11/17 08:26:52;;;;;;;124.90;120.27;;;10.80;99.90;;;;;;4961328;29;20507;-85
2022/11/17 08:29:23;;;;;;;74.20;71.40;;;10.70;99.90;;;;;;4960824;28;20498;-86
2022/11/17 08:31:53;;;;;;;26.30;25.00;;;10.80;99.90;;;;;;4960130;29;20463;-88
2022/11/17 08:34:23;;;;;;;30.10;28.87;;;10.90;99.90;;;;;;4960920;29;20459;-86
2022/11/17 08:36:55;;;;;;;39.20;37.10;;;10.80;99.90;;;;;;4961035;28;20460;-85
2022/11/17 08:39:30;;;;;;;42.00;40.07;;;10.90;99.90;;;;;;4961007;28;20493;-85
2022/11/17 08:42:04;;;;;;;56.80;54.63;;;10.90;99.90;;;;;;4962148;28;20806;-86
2022/11/17 08:47:33;;;;;;;35.70;34.07;;;11.00;99.90;;;;;;4959864;28;20476;-87
2022/11/17 08:50:16;;;;;;;65.13;62.63;;;11.10;99.90;;;;;;4961706;29;20456;-86
2022/11/17 08:52:45;;;;;;;93.33;89.93;;;11.10;99.90;;;;;;4961269;29;20452;-85
2022/11/17 08:55:12;;;;;;;74.07;70.97;;;11.20;99.90;;;;;;4960046;28;20947;-83
2022/11/17 08:57:39;;;;;;;69.93;67.33;;;11.30;99.90;;;;;;4961333;28;20475;-85
2022/11/17 09:00:12;;;;;;;54.00;51.77;;;11.40;99.90;;;;;;4961075;29;20483;-86
2022/11/17 09:02:39;;;;;;;52.77;50.80;;;11.50;99.90;;;;;;4961177;28;20934;-85
2022/11/17 09:05:07;;;;;;;39.27;37.60;;;11.50;99.90;;;;;;4961502;29;20544;-85
2022/11/17 09:07:38;;;;;;;60.07;57.77;;;11.60;99.90;;;;;;4961105;28;20480;-85
2022/11/17 09:10:09;;;;;;;62.77;60.47;;;11.60;99.90;;;;;;4961982;29;20531;-85
2022/11/17 09:12:36;;;;;;;34.13;32.70;;;11.60;99.90;;;;;;4960684;29;20462;-85
2022/11/17 09:15:03;;;;;;;34.20;32.67;;;11.60;99.90;;;;;;4959817;29;20467;-86
2022/11/17 09:17:31;;;;;;;13.70;12.90;;;11.70;99.90;;;;;;4961077;28;20456;-85
2022/11/17 09:19:57;;;;;;;20.17;18.90;;;11.70;99.90;;;;;;4960689;29;20987;-85
2022/11/17 09:22:24;;;;;;;20.50;19.60;;;11.70;99.90;;;;;;4960989;29;20547;-85
2022/11/17 09:24:51;;;;;;;11.73;11.00;;;11.70;99.90;;;;;;4960687;29;20452;-85
2022/11/17 09:27:19;;;;;;;8.53;7.93;;;11.80;99.90;;;;;;4961845;29;20498;-85
2022/11/17 09:29:46;;;;;;;3.80;2.40;;;12.00;99.90;;;;;;4961003;29;20458;-86
2022/11/17 09:32:15;;;;;;;3.90;1.47;;;12.00;99.90;;;;;;4961359;29;20523;-85
2022/11/17 09:34:42;;;;;;;9.77;1.60;;;12.10;99.70;;;;;;4960738;29;20900;-85
2022/11/17 09:37:09;;;;;;;4.83;1.70;;;12.20;97.40;;;;;;4959305;29;20579;-82
2022/11/17 09:39:35;;;;;;;8.17;1.57;;;12.40;96.40;;;;;;4959874;28;20590;-85
2022/11/17 09:42:03;;;;;;;6.43;1.73;;;12.50;98.30;;;;;;4960656;29;20460;-87
2022/11/17 09:44:38;;;;;;;4.60;1.23;;;12.60;96.20;;;;;;4960880;28;20481;-85
2022/11/17 09:47:14;;;;;;;4.90;1.60;;;12.50;95.00;;;;;;4960784;29;20849;-85
2022/11/17 09:49:50;;;;;;;7.00;1.20;;;12.60;96.20;;;;;;4963913;28;20524;-86
2022/11/17 09:52:22;;;;;;;5.17;1.57;;;12.60;93.90;;;;;;4964284;29;20459;-84
2022/11/17 09:54:53;;;;;;;6.40;1.20;;;12.50;94.50;;;;;;4963907;29;20962;-85
2022/11/17 09:57:25;;;;;;;6.90;1.50;;;12.70;95.10;;;;;;4964045;29;20462;-85
2022/11/17 10:00:02;;;;;;;3.83;1.63;;;12.50;94.20;;;;;;4963975;29;20459;-84
2022/11/17 10:02:29;;;;;;;9.30;1.37;;;12.50;94.70;;;;;;4963965;29;20530;-86
2022/11/17 10:04:56;;;;;;;3.80;1.43;;;12.70;94.70;;;;;;4964670;29;20459;-85
2022/11/17 10:07:23;;;;;;;5.00;1.77;;;12.70;94.20;;;;;;4964265;28;20484;-84
2022/11/17 10:09:52;;;;;;;5.00;1.10;;;12.70;94.00;;;;;;4964129;29;20463;-85
2022/11/17 10:12:22;;;;;;;3.97;1.20;;;12.80;94.60;;;;;;4964039;29;20827;-85
2022/11/17 10:14:49;;;;;;;4.50;1.47;;;12.90;95.10;;;;;;4963788;29;20458;-85
2022/11/17 10:17:18;;;;;;;3.30;1.20;;;12.90;94.50;;;;;;4965124;29;20460;-87
2022/11/17 10:19:56;;;;;;;3.93;0.80;;;12.80;93.90;;;;;;4963703;28;20476;-86
2022/11/17 10:22:36;;;;;;;5.40;1.10;;;12.70;93.90;;;;;;4963884;29;20456;-85
2022/11/17 10:25:03;;;;;;;4.10;0.90;;;12.70;95.00;;;;;;4964515;29;20450;-86
2022/11/17 10:27:32;;;;;;;6.23;1.10;;;12.60;95.40;;;;;;4963565;28;20587;-87
2022/11/17 10:30:01;;;;;;;8.50;1.27;;;12.60;95.50;;;;;;4963425;29;20460;-85
2022/11/17 10:32:34;;;;;;;3.60;0.90;;;12.50;94.50;;;;;;4963136;29;20503;-85
2022/11/17 10:35:15;;;;;;;4.67;0.90;;;12.50;95.00;;;;;;4963644;29;20459;-87
2022/11/17 10:37:51;;;;;;;2.90;0.80;;;12.60;95.70;;;;;;4964716;28;20535;-86
2022/11/17 10:40:19;;;;;;;6.40;3.03;;;12.40;94.80;;;;;;4963509;29;20499;-87
2022/11/17 10:42:57;;;;;;;4.30;1.10;;;12.40;95.00;;;;;;4963599;29;20459;-85
2022/11/17 10:45:23;;;;;;;5.87;1.20;;;12.40;95.00;;;;;;4963577;29;20470;-86
2022/11/17 10:47:52;;;;;;;4.10;1.10;;;12.50;94.90;;;;;;4962958;28;20484;-85
2022/11/17 10:50:24;;;;;;;3.10;1.00;;;12.50;94.80;;;;;;4963423;29;20464;-86
2022/11/17 10:52:52;;;;;;;3.73;1.30;;;12.50;94.50;;;;;;4963637;29;20466;-86
2022/11/17 10:55:27;;;;;;;5.10;1.47;;;12.60;94.50;;;;;;4963377;29;20460;-86
2022/11/17 10:57:58;;;;;;;3.10;0.93;;;12.70;94.70;;;;;;4964030;28;20475;-85
2022/11/17 11:00:29;;;;;;;3.43;0.90;;;12.70;94.20;;;;;;4961829;28;20539;-86
2022/11/17 11:03:34;;;;;;;6.50;0.90;;;12.70;94.20;;;;;;4963539;29;20444;-85
2022/11/17 11:06:05;;;;;;;3.07;0.77;;;12.80;94.20;;;;;;4963080;29;20463;-85
2022/11/17 11:08:41;;;;;;;3.30;0.80;;;12.80;94.10;;;;;;4963405;28;20467;-86
2022/11/17 11:11:15;;;;;;;4.80;1.10;;;12.80;93.90;;;;;;4962104;29;20993;-86
2022/11/17 11:13:48;;;;;;;4.17;0.80;;;12.80;93.90;;;;;;4962595;29;20450;-86
2022/11/17 11:16:15;;;;;;;5.33;1.07;;;12.80;93.60;;;;;;4963122;29;20460;-85
2022/11/17 11:18:43;;;;;;;3.20;0.90;;;12.70;93.40;;;;;;4962728;28;20483;-86
2022/11/17 11:21:38;;;;;;;3.90;0.80;;;12.70;93.30;;;;;;4962890;29;20459;-86
2022/11/17 11:24:34;;;;;;;3.50;0.90;;;12.60;93.20;;;;;;4962708;29;20456;-86
2022/11/17 11:27:18;;;;;;;3.73;0.80;;;12.60;93.00;;;;;;4962306;28;20833;-86
2022/11/17 11:29:59;;;;;;;6.00;1.00;;;12.80;92.70;;;;;;4961830;28;20472;-86
2022/11/17 11:32:38;;;;;;;3.40;0.80;;;13.20;93.10;;;;;;4961904;29;21049;-86
2022/11/17 11:35:55;;;;;;;5.73;0.80;;;13.40;92.40;;;;;;4961719;29;20523;-86
2022/11/17 11:38:38;;;;;;;3.20;0.80;;;13.50;92.30;;;;;;4956046;28;20491;-86
2022/11/17 11:41:14;;;;;;;4.20;0.80;;;13.50;92.40;;;;;;4961989;29;20451;-86
2022/11/17 11:43:55;;;;;;;4.00;0.80;;;13.40;91.80;;;;;;4961480;29;20451;-86
2022/11/17 11:46:34;;;;;;;8.73;1.03;;;13.30;92.30;;;;;;4960863;29;20458;-86
2022/11/17 11:49:24;;;;;;;3.97;0.90;;;13.30;91.20;;;;;;4962449;28;20531;-86
2022/11/17 11:51:53;;;;;;;4.60;0.80;;;13.30;92.30;;;;;;4961790;29;20460;-85
2022/11/17 11:54:32;;;;;;;7.30;1.00;;;13.30;92.30;;;;;;4963034;29;20455;-86
2022/11/17 11:57:00;;;;;;;3.73;1.07;;;13.30;92.30;;;;;;4963852;29;20467;-89
2022/11/17 11:59:38;;;;;;;5.00;1.10;;;13.20;92.30;;;;;;4963864;28;20539;-88
2022/11/17 12:02:18;;;;;;;5.00;0.80;;;13.10;92.20;;;;;;4962864;28;20470;-87
2022/11/17 12:04:50;;;;;;;5.30;1.13;;;13.10;91.90;;;;;;4963842;29;20530;-87
2022/11/17 12:07:23;;;;;;;3.27;0.80;;;13.00;91.20;;;;;;4963679;29;20555;-84
2022/11/17 12:10:01;;;;;;;4.03;0.80;;;13.00;91.50;;;;;;4961394;29;20962;-85
2022/11/17 12:12:31;;;;;;;8.57;1.30;;;13.00;92.20;;;;;;4961213;28;20443;-85
2022/11/17 12:15:10;;;;;;;4.03;1.23;;;12.90;91.30;;;;;;4963036;29;20464;-86
2022/11/17 12:17:38;;;;;;;4.30;1.20;;;12.90;91.40;;;;;;4962170;28;20456;-85
2022/11/17 12:20:25;;;;;;;3.60;0.77;;;12.80;91.10;;;;;;4963294;29;20455;-85
2022/11/17 12:23:05;;;;;;;7.50;1.20;;;12.80;90.80;;;;;;4963283;29;20997;-85
2022/11/17 12:25:35;;;;;;;5.10;1.00;;;12.80;90.90;;;;;;4963146;29;20455;-85
2022/11/17 12:28:28;;;;;;;4.80;0.90;;;12.90;90.20;;;;;;4961704;28;21011;-85
2022/11/17 12:30:56;;;;;;;4.07;1.00;;;12.80;91.10;;;;;;4962313;28;20456;-85
2022/11/17 12:33:24;;;;;;;4.53;1.30;;;12.90;90.90;;;;;;4961999;29;20560;-85
2022/11/17 12:36:16;;;;;;;7.70;1.20;;;12.90;90.40;;;;;;4962790;29;20451;-85
2022/11/17 12:38:45;;;;;;;4.07;1.03;;;12.90;90.00;;;;;;4962191;28;20527;-85
2022/11/17 12:41:12;;;;;;;4.03;1.63;;;12.80;90.10;;;;;;4961662;29;20571;-85
2022/11/17 12:43:38;;;;;;;4.37;1.43;;;12.80;90.50;;;;;;4962572;29;20470;-83
2022/11/17 12:46:19;;;;;;;3.97;0.80;;;12.80;91.40;;;;;;4961747;29;20463;-84
2022/11/17 12:48:56;;;;;;;3.80;1.00;;;12.60;92.00;;;;;;4960520;28;20472;-83
2022/11/17 12:51:32;;;;;;;3.97;0.93;;;12.50;92.00;;;;;;4960843;29;20456;-84
2022/11/17 12:54:14;;;;;;;7.63;1.37;;;12.50;91.60;;;;;;4960878;29;20451;-84
2022/11/17 12:56:51;;;;;;;3.60;1.00;;;12.50;92.00;;;;;;4961926;29;20451;-84
2022/11/17 12:59:40;;;;;;;4.63;1.10;;;12.50;92.00;;;;;;4961142;28;20482;-84
2022/11/17 13:02:21;;;;;;;6.80;1.13;;;12.50;92.00;;;;;;4961527;29;20463;-86
2022/11/17 13:04:51;;;;;;;3.20;0.80;;;12.40;92.00;;;;;;4962462;29;20456;-84
2022/11/17 13:07:20;;;;;;;3.87;0.90;;;12.40;92.00;;;;;;4961366;29;20538;-82
2022/11/17 13:09:52;;;;;;;4.20;0.90;;;12.40;92.00;;;;;;4961450;29;20456;-85
2022/11/17 13:12:23;;;;;;;6.43;1.10;;;12.50;91.50;;;;;;4961278;29;20460;-85
2022/11/17 13:14:54;;;;;;;5.17;1.83;;;12.40;92.00;;;;;;4961668;29;20470;-84